sensor_id;sensor_type;location;lat;lon;timestamp;P1;durP1;ratioP1;P2;durP2;ratioP2
41039;SDS011;48586;50.122;18.972;2022-11-15T00:02:30;72.43;;;24.40;;
41039;SDS011;48586;50.122;18.972;2022-11-15T00:05:51;63.72;;;26.02;;
41039;SDS011;48586;50.122;18.972;2022-11-15T00:09:13;109.65;;;28.27;;
41039;SDS011;48586;50.122;18.972;2022-11-15T00:12:33;67.40;;;26.20;;
41039;SDS011;48586;50.122;18.972;2022-11-15T00:15:56;105.65;;;26.85;;
41039;SDS011;48586;50.122;18.972;2022-11-15T00:19:17;72.38;;;26.25;;
41039;SDS011;48586;50.122;18.972;2022-11-15T00:22:36;88.57;;;24.38;;
41039;SDS011;48586;50.122;18.972;2022-11-15T00:25:59;91.97;;;25.95;;
41039;SDS011;48586;50.122;18.972;2022-11-15T00:29:20;79.63;;;26.40;;
41039;SDS011;48586;50.122;18.972;2022-11-15T00:32:40;87.28;;;26.75;;
41039;SDS011;48586;50.122;18.972;2022-11-15T00:36:00;63.58;;;26.67;;
41039;SDS011;48586;50.122;18.972;2022-11-15T00:39:23;189.70;;;27.27;;
41039;SDS011;48586;50.122;18.972;2022-11-15T00:42:45;189.00;;;29.20;;
41039;SDS011;48586;50.122;18.972;2022-11-15T00:46:05;75.63;;;29.30;;
41039;SDS011;48586;50.122;18.972;2022-11-15T00:49:27;98.68;;;26.67;;
41039;SDS011;48586;50.122;18.972;2022-11-15T00:52:48;120.43;;;25.55;;
41039;SDS011;48586;50.122;18.972;2022-11-15T00:56:08;92.15;;;26.35;;
41039;SDS011;48586;50.122;18.972;2022-11-15T00:59:29;88.25;;;25.73;;
41039;SDS011;48586;50.122;18.972;2022-11-15T01:02:50;92.03;;;27.27;;
41039;SDS011;48586;50.122;18.972;2022-11-15T01:06:10;122.93;;;26.13;;
41039;SDS011;48586;50.122;18.972;2022-11-15T01:09:31;92.88;;;27.10;;
41039;SDS011;48586;50.122;18.972;2022-11-15T01:12:51;100.15;;;26.63;;
41039;SDS011;48586;50.122;18.972;2022-11-15T01:16:13;184.43;;;27.80;;
41039;SDS011;48586;50.122;18.972;2022-11-15T01:19:37;214.10;;;25.73;;
41039;SDS011;48586;50.122;18.972;2022-11-15T01:22:58;116.50;;;25.80;;
41039;SDS011;48586;50.122;18.972;2022-11-15T01:26:19;156.98;;;26.95;;
41039;SDS011;48586;50.122;18.972;2022-11-15T01:29:41;158.10;;;27.40;;
41039;SDS011;48586;50.122;18.972;2022-11-15T01:33:02;131.98;;;27.13;;
41039;SDS011;48586;50.122;18.972;2022-11-15T01:36:22;120.35;;;28.20;;
41039;SDS011;48586;50.122;18.972;2022-11-15T01:39:43;178.13;;;28.30;;
41039;SDS011;48586;50.122;18.972;2022-11-15T01:46:39;125.20;;;28.90;;
41039;SDS011;48586;50.122;18.972;2022-11-15T01:50:08;77.43;;;28.65;;
41039;SDS011;48586;50.122;18.972;2022-11-15T01:53:30;116.70;;;27.97;;
41039;SDS011;48586;50.122;18.972;2022-11-15T01:56:55;230.00;;;26.83;;
41039;SDS011;48586;50.122;18.972;2022-11-15T02:00:21;239.60;;;24.45;;
41039;SDS011;48586;50.122;18.972;2022-11-15T02:03:42;187.27;;;23.45;;
41039;SDS011;48586;50.122;18.972;2022-11-15T02:07:12;80.68;;;23.13;;
41039;SDS011;48586;50.122;18.972;2022-11-15T02:10:35;104.15;;;22.35;;
41039;SDS011;48586;50.122;18.972;2022-11-15T02:13:55;87.80;;;23.33;;
41039;SDS011;48586;50.122;18.972;2022-11-15T02:17:21;62.03;;;21.27;;
41039;SDS011;48586;50.122;18.972;2022-11-15T02:20:54;185.02;;;22.35;;
41039;SDS011;48586;50.122;18.972;2022-11-15T02:24:41;133.48;;;21.33;;
41039;SDS011;48586;50.122;18.972;2022-11-15T02:28:33;82.80;;;22.17;;
41039;SDS011;48586;50.122;18.972;2022-11-15T02:32:07;100.25;;;22.27;;
41039;SDS011;48586;50.122;18.972;2022-11-15T02:35:37;53.65;;;21.67;;
41039;SDS011;48586;50.122;18.972;2022-11-15T02:39:06;84.85;;;20.65;;
41039;SDS011;48586;50.122;18.972;2022-11-15T02:42:32;88.13;;;20.58;;
41039;SDS011;48586;50.122;18.972;2022-11-15T02:46:26;91.13;;;19.52;;
41039;SDS011;48586;50.122;18.972;2022-11-15T02:50:12;70.05;;;19.33;;
41039;SDS011;48586;50.122;18.972;2022-11-15T02:53:38;68.90;;;20.92;;
41039;SDS011;48586;50.122;18.972;2022-11-15T02:56:59;151.68;;;20.88;;
41039;SDS011;48586;50.122;18.972;2022-11-15T03:00:20;65.53;;;20.98;;
41039;SDS011;48586;50.122;18.972;2022-11-15T03:03:44;63.67;;;21.95;;
41039;SDS011;48586;50.122;18.972;2022-11-15T03:07:18;70.70;;;21.20;;
41039;SDS011;48586;50.122;18.972;2022-11-15T03:10:46;130.07;;;22.63;;
41039;SDS011;48586;50.122;18.972;2022-11-15T03:14:18;84.13;;;21.15;;
41039;SDS011;48586;50.122;18.972;2022-11-15T03:17:43;55.13;;;20.58;;
41039;SDS011;48586;50.122;18.972;2022-11-15T03:21:09;63.90;;;20.63;;
41039;SDS011;48586;50.122;18.972;2022-11-15T03:24:33;70.45;;;21.42;;
41039;SDS011;48586;50.122;18.972;2022-11-15T03:27:58;99.88;;;21.30;;
41039;SDS011;48586;50.122;18.972;2022-11-15T03:35:04;108.95;;;20.88;;
41039;SDS011;48586;50.122;18.972;2022-11-15T03:38:29;69.45;;;21.42;;
41039;SDS011;48586;50.122;18.972;2022-11-15T03:41:56;105.55;;;20.98;;
41039;SDS011;48586;50.122;18.972;2022-11-15T03:45:25;59.80;;;20.83;;
41039;SDS011;48586;50.122;18.972;2022-11-15T03:48:53;151.05;;;21.92;;
41039;SDS011;48586;50.122;18.972;2022-11-15T03:52:18;109.53;;;21.92;;
41039;SDS011;48586;50.122;18.972;2022-11-15T03:55:40;89.82;;;24.40;;
41039;SDS011;48586;50.122;18.972;2022-11-15T03:59:01;77.45;;;23.50;;
41039;SDS011;48586;50.122;18.972;2022-11-15T04:02:22;165.30;;;26.55;;
41039;SDS011;48586;50.122;18.972;2022-11-15T04:05:43;99.65;;;24.55;;
41039;SDS011;48586;50.122;18.972;2022-11-15T04:09:03;73.85;;;25.30;;
41039;SDS011;48586;50.122;18.972;2022-11-15T04:12:23;144.52;;;24.60;;
41039;SDS011;48586;50.122;18.972;2022-11-15T04:15:51;90.90;;;24.73;;
41039;SDS011;48586;50.122;18.972;2022-11-15T04:19:11;86.00;;;25.13;;
41039;SDS011;48586;50.122;18.972;2022-11-15T04:22:51;97.55;;;23.80;;
41039;SDS011;48586;50.122;18.972;2022-11-15T04:26:30;61.22;;;25.30;;
41039;SDS011;48586;50.122;18.972;2022-11-15T04:29:50;74.88;;;25.50;;
41039;SDS011;48586;50.122;18.972;2022-11-15T04:33:11;85.97;;;27.13;;
41039;SDS011;48586;50.122;18.972;2022-11-15T04:36:31;63.15;;;25.50;;
41039;SDS011;48586;50.122;18.972;2022-11-15T04:40:10;130.38;;;26.17;;
41039;SDS011;48586;50.122;18.972;2022-11-15T04:43:30;82.03;;;23.70;;
41039;SDS011;48586;50.122;18.972;2022-11-15T04:46:51;77.22;;;25.65;;
41039;SDS011;48586;50.122;18.972;2022-11-15T04:50:13;92.13;;;25.27;;
41039;SDS011;48586;50.122;18.972;2022-11-15T04:53:34;56.85;;;24.02;;
41039;SDS011;48586;50.122;18.972;2022-11-15T04:56:54;65.63;;;24.13;;
41039;SDS011;48586;50.122;18.972;2022-11-15T05:00:15;98.32;;;25.05;;
41039;SDS011;48586;50.122;18.972;2022-11-15T05:03:36;78.47;;;23.30;;
41039;SDS011;48586;50.122;18.972;2022-11-15T05:07:16;91.95;;;23.52;;
41039;SDS011;48586;50.122;18.972;2022-11-15T05:10:36;71.97;;;23.67;;
41039;SDS011;48586;50.122;18.972;2022-11-15T05:13:56;115.07;;;23.15;;
41039;SDS011;48586;50.122;18.972;2022-11-15T05:17:16;113.90;;;23.13;;
41039;SDS011;48586;50.122;18.972;2022-11-15T05:20:36;88.13;;;22.80;;
41039;SDS011;48586;50.122;18.972;2022-11-15T05:23:58;62.40;;;22.73;;
41039;SDS011;48586;50.122;18.972;2022-11-15T05:27:18;58.95;;;23.65;;
41039;SDS011;48586;50.122;18.972;2022-11-15T05:30:39;82.50;;;25.10;;
41039;SDS011;48586;50.122;18.972;2022-11-15T05:34:04;97.05;;;24.33;;
41039;SDS011;48586;50.122;18.972;2022-11-15T05:37:25;96.32;;;24.70;;
41039;SDS011;48586;50.122;18.972;2022-11-15T05:40:46;95.38;;;23.80;;
41039;SDS011;48586;50.122;18.972;2022-11-15T05:44:07;135.25;;;25.25;;
41039;SDS011;48586;50.122;18.972;2022-11-15T05:47:30;111.47;;;24.00;;
41039;SDS011;48586;50.122;18.972;2022-11-15T05:50:50;83.63;;;24.23;;
41039;SDS011;48586;50.122;18.972;2022-11-15T05:54:12;72.80;;;24.58;;
41039;SDS011;48586;50.122;18.972;2022-11-15T05:57:36;64.88;;;24.35;;
41039;SDS011;48586;50.122;18.972;2022-11-15T06:00:56;72.47;;;27.48;;
41039;SDS011;48586;50.122;18.972;2022-11-15T06:04:16;164.75;;;27.75;;
41039;SDS011;48586;50.122;18.972;2022-11-15T06:07:36;71.80;;;27.75;;
41039;SDS011;48586;50.122;18.972;2022-11-15T06:11:02;168.15;;;30.08;;
41039;SDS011;48586;50.122;18.972;2022-11-15T06:14:25;175.73;;;29.58;;
41039;SDS011;48586;50.122;18.972;2022-11-15T06:17:46;109.82;;;29.08;;
41039;SDS011;48586;50.122;18.972;2022-11-15T06:21:06;107.20;;;27.50;;
41039;SDS011;48586;50.122;18.972;2022-11-15T06:24:27;146.45;;;27.33;;
41039;SDS011;48586;50.122;18.972;2022-11-15T06:27:50;113.60;;;27.13;;
41039;SDS011;48586;50.122;18.972;2022-11-15T06:31:12;96.40;;;28.52;;
41039;SDS011;48586;50.122;18.972;2022-11-15T06:34:32;79.07;;;27.38;;
41039;SDS011;48586;50.122;18.972;2022-11-15T06:37:55;155.75;;;26.58;;
41039;SDS011;48586;50.122;18.972;2022-11-15T06:41:16;134.55;;;25.05;;
41039;SDS011;48586;50.122;18.972;2022-11-15T06:44:36;155.10;;;25.88;;
41039;SDS011;48586;50.122;18.972;2022-11-15T06:47:58;93.70;;;27.10;;
41039;SDS011;48586;50.122;18.972;2022-11-15T06:51:19;98.18;;;26.27;;
41039;SDS011;48586;50.122;18.972;2022-11-15T06:54:39;64.63;;;26.23;;
41039;SDS011;48586;50.122;18.972;2022-11-15T06:58:00;74.63;;;26.58;;
41039;SDS011;48586;50.122;18.972;2022-11-15T07:01:20;146.90;;;25.98;;
41039;SDS011;48586;50.122;18.972;2022-11-15T07:04:42;75.03;;;26.05;;
41039;SDS011;48586;50.122;18.972;2022-11-15T07:08:03;94.30;;;29.13;;
41039;SDS011;48586;50.122;18.972;2022-11-15T07:11:24;72.95;;;28.45;;
41039;SDS011;48586;50.122;18.972;2022-11-15T07:14:44;58.17;;;28.17;;
41039;SDS011;48586;50.122;18.972;2022-11-15T07:18:05;76.72;;;28.55;;
41039;SDS011;48586;50.122;18.972;2022-11-15T07:21:26;82.43;;;29.30;;
41039;SDS011;48586;50.122;18.972;2022-11-15T07:24:49;106.43;;;29.77;;
41039;SDS011;48586;50.122;18.972;2022-11-15T07:28:10;78.05;;;29.13;;
41039;SDS011;48586;50.122;18.972;2022-11-15T07:31:31;81.30;;;30.13;;
41039;SDS011;48586;50.122;18.972;2022-11-15T07:34:52;94.55;;;32.10;;
41039;SDS011;48586;50.122;18.972;2022-11-15T09:39:58;70.82;;;34.70;;
41039;SDS011;48586;50.122;18.972;2022-11-15T09:43:24;77.68;;;35.53;;
41039;SDS011;48586;50.122;18.972;2022-11-15T09:46:52;81.57;;;38.75;;
41039;SDS011;48586;50.122;18.972;2022-11-15T09:50:36;79.18;;;38.97;;
41039;SDS011;48586;50.122;18.972;2022-11-15T09:53:51;95.70;;;43.67;;
41039;SDS011;48586;50.122;18.972;2022-11-15T09:57:04;90.25;;;43.97;;
41039;SDS011;48586;50.122;18.972;2022-11-15T10:00:15;93.10;;;43.67;;
41039;SDS011;48586;50.122;18.972;2022-11-15T10:03:23;85.82;;;42.67;;
41039;SDS011;48586;50.122;18.972;2022-11-15T10:06:28;75.18;;;38.15;;
41039;SDS011;48586;50.122;18.972;2022-11-15T10:09:36;72.85;;;38.17;;
41039;SDS011;48586;50.122;18.972;2022-11-15T10:12:47;72.68;;;36.33;;
41039;SDS011;48586;50.122;18.972;2022-11-15T10:15:53;57.63;;;30.02;;
41039;SDS011;48586;50.122;18.972;2022-11-15T10:19:04;49.72;;;27.17;;
41039;SDS011;48586;50.122;18.972;2022-11-15T10:22:16;51.88;;;27.83;;
41039;SDS011;48586;50.122;18.972;2022-11-15T10:25:27;50.40;;;27.80;;
41039;SDS011;48586;50.122;18.972;2022-11-15T10:28:32;48.97;;;27.63;;
41039;SDS011;48586;50.122;18.972;2022-11-15T10:31:37;48.53;;;27.92;;
41039;SDS011;48586;50.122;18.972;2022-11-15T10:34:42;41.20;;;25.85;;
41039;SDS011;48586;50.122;18.972;2022-11-15T10:37:44;39.45;;;24.65;;
41039;SDS011;48586;50.122;18.972;2022-11-15T10:40:47;46.42;;;25.92;;
41039;SDS011;48586;50.122;18.972;2022-11-15T10:44:03;41.58;;;25.00;;
41039;SDS011;48586;50.122;18.972;2022-11-15T10:47:24;40.63;;;25.35;;
41039;SDS011;48586;50.122;18.972;2022-11-15T10:50:29;39.42;;;25.25;;
41039;SDS011;48586;50.122;18.972;2022-11-15T10:53:33;38.85;;;23.55;;
41039;SDS011;48586;50.122;18.972;2022-11-15T10:56:48;36.72;;;23.08;;
41039;SDS011;48586;50.122;18.972;2022-11-15T10:59:53;37.35;;;22.27;;
41039;SDS011;48586;50.122;18.972;2022-11-15T11:02:59;37.25;;;22.65;;
41039;SDS011;48586;50.122;18.972;2022-11-15T11:06:03;40.85;;;21.60;;
41039;SDS011;48586;50.122;18.972;2022-11-15T11:09:09;34.35;;;20.77;;
41039;SDS011;48586;50.122;18.972;2022-11-15T11:12:26;34.92;;;20.80;;
41039;SDS011;48586;50.122;18.972;2022-11-15T11:15:31;32.80;;;21.35;;
41039;SDS011;48586;50.122;18.972;2022-11-15T11:18:34;37.25;;;21.73;;
41039;SDS011;48586;50.122;18.972;2022-11-15T11:21:42;33.08;;;21.85;;
41039;SDS011;48586;50.122;18.972;2022-11-15T11:24:58;34.35;;;22.33;;
41039;SDS011;48586;50.122;18.972;2022-11-15T11:28:14;37.60;;;21.88;;
41039;SDS011;48586;50.122;18.972;2022-11-15T11:31:30;36.90;;;22.88;;
41039;SDS011;48586;50.122;18.972;2022-11-15T11:34:43;33.67;;;21.95;;
41039;SDS011;48586;50.122;18.972;2022-11-15T11:37:52;35.80;;;22.40;;
41039;SDS011;48586;50.122;18.972;2022-11-15T11:40:59;35.70;;;22.98;;
41039;SDS011;48586;50.122;18.972;2022-11-15T11:44:15;39.40;;;23.42;;
41039;SDS011;48586;50.122;18.972;2022-11-15T11:47:31;47.85;;;29.92;;
41039;SDS011;48586;50.122;18.972;2022-11-15T11:50:38;55.53;;;32.13;;
41039;SDS011;48586;50.122;18.972;2022-11-15T11:53:42;54.95;;;32.47;;
41039;SDS011;48586;50.122;18.972;2022-11-15T11:56:53;52.50;;;31.27;;
41039;SDS011;48586;50.122;18.972;2022-11-15T12:00:00;52.20;;;28.85;;
41039;SDS011;48586;50.122;18.972;2022-11-15T12:03:16;62.67;;;32.75;;
41039;SDS011;48586;50.122;18.972;2022-11-15T12:06:29;56.58;;;32.35;;
41039;SDS011;48586;50.122;18.972;2022-11-15T12:09:35;57.15;;;30.33;;
41039;SDS011;48586;50.122;18.972;2022-11-15T12:12:41;48.58;;;27.00;;
41039;SDS011;48586;50.122;18.972;2022-11-15T12:15:50;61.63;;;33.60;;
41039;SDS011;48586;50.122;18.972;2022-11-15T12:19:00;61.90;;;33.65;;
41039;SDS011;48586;50.122;18.972;2022-11-15T12:22:04;55.85;;;32.67;;
41039;SDS011;48586;50.122;18.972;2022-11-15T12:25:14;57.28;;;30.85;;
41039;SDS011;48586;50.122;18.972;2022-11-15T12:28:27;57.63;;;33.72;;
41039;SDS011;48586;50.122;18.972;2022-11-15T12:31:39;49.47;;;29.80;;
41039;SDS011;48586;50.122;18.972;2022-11-15T12:34:46;50.58;;;28.40;;
41039;SDS011;48586;50.122;18.972;2022-11-15T12:37:50;47.33;;;28.02;;
41039;SDS011;48586;50.122;18.972;2022-11-15T12:44:55;47.30;;;27.50;;
41039;SDS011;48586;50.122;18.972;2022-11-15T12:58:39;46.92;;;27.02;;
41039;SDS011;48586;50.122;18.972;2022-11-15T13:01:56;47.17;;;27.85;;
41039;SDS011;48586;50.122;18.972;2022-11-15T13:05:45;49.08;;;28.48;;
41039;SDS011;48586;50.122;18.972;2022-11-15T13:08:59;48.97;;;28.75;;
41039;SDS011;48586;50.122;18.972;2022-11-15T13:12:01;54.00;;;30.05;;
41039;SDS011;48586;50.122;18.972;2022-11-15T13:15:15;53.17;;;28.95;;
41039;SDS011;48586;50.122;18.972;2022-11-15T13:18:38;55.10;;;31.55;;
41039;SDS011;48586;50.122;18.972;2022-11-15T13:21:47;55.97;;;31.02;;
41039;SDS011;48586;50.122;18.972;2022-11-15T13:25:15;55.35;;;30.23;;
41039;SDS011;48586;50.122;18.972;2022-11-15T13:28:29;55.85;;;30.27;;
41039;SDS011;48586;50.122;18.972;2022-11-15T13:31:35;52.97;;;30.38;;
41039;SDS011;48586;50.122;18.972;2022-11-15T13:34:39;60.83;;;31.80;;
41039;SDS011;48586;50.122;18.972;2022-11-15T13:37:46;58.38;;;31.25;;
41039;SDS011;48586;50.122;18.972;2022-11-15T13:40:50;54.67;;;30.38;;
41039;SDS011;48586;50.122;18.972;2022-11-15T13:43:53;56.90;;;31.50;;
41039;SDS011;48586;50.122;18.972;2022-11-15T13:47:02;59.33;;;31.35;;
41039;SDS011;48586;50.122;18.972;2022-11-15T13:50:10;52.28;;;30.80;;
41039;SDS011;48586;50.122;18.972;2022-11-15T13:53:12;53.85;;;30.15;;
41039;SDS011;48586;50.122;18.972;2022-11-15T13:56:16;61.35;;;33.28;;
41039;SDS011;48586;50.122;18.972;2022-11-15T14:02:25;59.20;;;33.60;;
41039;SDS011;48586;50.122;18.972;2022-11-15T14:05:28;59.88;;;33.28;;
41039;SDS011;48586;50.122;18.972;2022-11-15T14:08:30;59.53;;;35.75;;
41039;SDS011;48586;50.122;18.972;2022-11-15T14:11:34;58.65;;;33.85;;
41039;SDS011;48586;50.122;18.972;2022-11-15T14:14:36;56.22;;;31.27;;
41039;SDS011;48586;50.122;18.972;2022-11-15T14:17:46;52.28;;;31.10;;
41039;SDS011;48586;50.122;18.972;2022-11-15T14:20:51;60.25;;;30.88;;
41039;SDS011;48586;50.122;18.972;2022-11-15T14:24:16;55.97;;;30.85;;
41039;SDS011;48586;50.122;18.972;2022-11-15T14:27:22;58.03;;;32.30;;
41039;SDS011;48586;50.122;18.972;2022-11-15T14:30:25;72.93;;;39.22;;
41039;SDS011;48586;50.122;18.972;2022-11-15T14:33:27;80.40;;;41.92;;
41039;SDS011;48586;50.122;18.972;2022-11-15T14:36:31;74.90;;;41.75;;
41039;SDS011;48586;50.122;18.972;2022-11-15T14:39:33;72.70;;;39.58;;
41039;SDS011;48586;50.122;18.972;2022-11-15T14:42:36;69.75;;;38.97;;
41039;SDS011;48586;50.122;18.972;2022-11-15T14:45:38;63.17;;;37.15;;
41039;SDS011;48586;50.122;18.972;2022-11-15T14:48:40;71.32;;;37.53;;
41039;SDS011;48586;50.122;18.972;2022-11-15T14:51:42;64.88;;;37.10;;
41039;SDS011;48586;50.122;18.972;2022-11-15T14:54:44;66.57;;;37.63;;
41039;SDS011;48586;50.122;18.972;2022-11-15T14:57:49;68.05;;;38.35;;
41039;SDS011;48586;50.122;18.972;2022-11-15T15:00:52;71.30;;;39.33;;
41039;SDS011;48586;50.122;18.972;2022-11-15T15:03:54;72.32;;;40.67;;
41039;SDS011;48586;50.122;18.972;2022-11-15T15:06:57;79.38;;;40.17;;
41039;SDS011;48586;50.122;18.972;2022-11-15T15:10:00;75.30;;;40.65;;
41039;SDS011;48586;50.122;18.972;2022-11-15T15:13:04;91.90;;;46.67;;
41039;SDS011;48586;50.122;18.972;2022-11-15T15:16:06;90.00;;;44.13;;
41039;SDS011;48586;50.122;18.972;2022-11-15T15:19:08;75.43;;;42.17;;
41039;SDS011;48586;50.122;18.972;2022-11-15T15:22:12;77.55;;;42.10;;
41039;SDS011;48586;50.122;18.972;2022-11-15T15:25:19;76.65;;;41.25;;
41039;SDS011;48586;50.122;18.972;2022-11-15T15:28:24;80.03;;;42.67;;
41039;SDS011;48586;50.122;18.972;2022-11-15T15:31:26;80.82;;;42.05;;
41039;SDS011;48586;50.122;18.972;2022-11-15T15:34:29;84.03;;;41.65;;
41039;SDS011;48586;50.122;18.972;2022-11-15T15:37:32;84.53;;;44.55;;
41039;SDS011;48586;50.122;18.972;2022-11-15T15:40:35;80.30;;;41.03;;
41039;SDS011;48586;50.122;18.972;2022-11-15T15:43:38;74.15;;;39.58;;
41039;SDS011;48586;50.122;18.972;2022-11-15T15:46:41;76.07;;;39.72;;
41039;SDS011;48586;50.122;18.972;2022-11-15T15:49:43;79.10;;;40.60;;
41039;SDS011;48586;50.122;18.972;2022-11-15T15:52:45;71.13;;;38.95;;
41039;SDS011;48586;50.122;18.972;2022-11-15T15:55:47;77.25;;;39.08;;
41039;SDS011;48586;50.122;18.972;2022-11-15T15:58:51;73.25;;;40.38;;
41039;SDS011;48586;50.122;18.972;2022-11-15T16:01:53;78.53;;;43.00;;
41039;SDS011;48586;50.122;18.972;2022-11-15T16:04:55;78.03;;;41.63;;
41039;SDS011;48586;50.122;18.972;2022-11-15T16:07:57;74.60;;;42.17;;
41039;SDS011;48586;50.122;18.972;2022-11-15T16:10:58;81.10;;;43.42;;
41039;SDS011;48586;50.122;18.972;2022-11-15T16:14:02;86.70;;;45.45;;
41039;SDS011;48586;50.122;18.972;2022-11-15T16:17:03;84.20;;;44.60;;
41039;SDS011;48586;50.122;18.972;2022-11-15T16:20:05;81.47;;;44.72;;
41039;SDS011;48586;50.122;18.972;2022-11-15T16:23:09;80.28;;;43.17;;
41039;SDS011;48586;50.122;18.972;2022-11-15T16:26:14;73.32;;;41.47;;
41039;SDS011;48586;50.122;18.972;2022-11-15T16:29:22;82.35;;;43.58;;
41039;SDS011;48586;50.122;18.972;2022-11-15T16:32:24;82.03;;;44.60;;
41039;SDS011;48586;50.122;18.972;2022-11-15T16:35:25;86.13;;;45.28;;
41039;SDS011;48586;50.122;18.972;2022-11-15T16:38:27;80.47;;;45.22;;
41039;SDS011;48586;50.122;18.972;2022-11-15T16:41:29;121.35;;;60.67;;
41039;SDS011;48586;50.122;18.972;2022-11-15T16:44:33;120.20;;;64.25;;
41039;SDS011;48586;50.122;18.972;2022-11-15T16:47:35;130.77;;;70.50;;
41039;SDS011;48586;50.122;18.972;2022-11-15T16:50:36;131.23;;;67.90;;
41039;SDS011;48586;50.122;18.972;2022-11-15T16:53:41;129.02;;;69.30;;
41039;SDS011;48586;50.122;18.972;2022-11-15T16:56:43;131.93;;;68.30;;
41039;SDS011;48586;50.122;18.972;2022-11-15T16:59:46;130.98;;;71.30;;
41039;SDS011;48586;50.122;18.972;2022-11-15T17:02:48;134.63;;;75.15;;
41039;SDS011;48586;50.122;18.972;2022-11-15T17:05:51;128.50;;;72.03;;
41039;SDS011;48586;50.122;18.972;2022-11-15T17:08:53;136.32;;;73.85;;
41039;SDS011;48586;50.122;18.972;2022-11-15T17:11:55;128.48;;;68.07;;
41039;SDS011;48586;50.122;18.972;2022-11-15T17:14:59;129.93;;;69.68;;
41039;SDS011;48586;50.122;18.972;2022-11-15T17:18:00;139.77;;;75.25;;
41039;SDS011;48586;50.122;18.972;2022-11-15T17:21:03;135.25;;;77.85;;
41039;SDS011;48586;50.122;18.972;2022-11-15T17:24:06;136.93;;;76.50;;
41039;SDS011;48586;50.122;18.972;2022-11-15T17:27:08;139.38;;;74.97;;
41039;SDS011;48586;50.122;18.972;2022-11-15T17:30:12;145.50;;;77.72;;
41039;SDS011;48586;50.122;18.972;2022-11-15T17:33:15;148.60;;;79.78;;
41039;SDS011;48586;50.122;18.972;2022-11-15T17:36:17;173.40;;;88.55;;
41039;SDS011;48586;50.122;18.972;2022-11-15T17:39:19;169.95;;;86.38;;
41039;SDS011;48586;50.122;18.972;2022-11-15T17:42:22;162.75;;;83.03;;
41039;SDS011;48586;50.122;18.972;2022-11-15T17:45:25;140.88;;;74.07;;
41039;SDS011;48586;50.122;18.972;2022-11-15T17:48:27;140.57;;;77.22;;
41039;SDS011;48586;50.122;18.972;2022-11-15T17:51:30;141.50;;;76.63;;
41039;SDS011;48586;50.122;18.972;2022-11-15T17:54:32;135.23;;;73.03;;
41039;SDS011;48586;50.122;18.972;2022-11-15T17:57:34;127.30;;;71.03;;
41039;SDS011;48586;50.122;18.972;2022-11-15T18:00:37;143.55;;;73.05;;
41039;SDS011;48586;50.122;18.972;2022-11-15T18:03:38;141.68;;;70.38;;
41039;SDS011;48586;50.122;18.972;2022-11-15T18:06:40;133.68;;;70.45;;
41039;SDS011;48586;50.122;18.972;2022-11-15T18:09:42;129.27;;;68.25;;
41039;SDS011;48586;50.122;18.972;2022-11-15T18:12:44;131.23;;;68.60;;
41039;SDS011;48586;50.122;18.972;2022-11-15T18:15:49;129.77;;;68.32;;
41039;SDS011;48586;50.122;18.972;2022-11-15T18:18:54;131.40;;;66.57;;
41039;SDS011;48586;50.122;18.972;2022-11-15T18:21:55;130.32;;;68.07;;
41039;SDS011;48586;50.122;18.972;2022-11-15T18:24:58;127.32;;;64.47;;
41039;SDS011;48586;50.122;18.972;2022-11-15T18:27:59;134.13;;;65.68;;
41039;SDS011;48586;50.122;18.972;2022-11-15T18:31:03;123.80;;;62.13;;
41039;SDS011;48586;50.122;18.972;2022-11-15T18:34:12;123.75;;;61.05;;
41039;SDS011;48586;50.122;18.972;2022-11-15T18:37:14;121.72;;;61.03;;
41039;SDS011;48586;50.122;18.972;2022-11-15T18:40:16;122.88;;;63.63;;
41039;SDS011;48586;50.122;18.972;2022-11-15T18:43:20;141.18;;;75.10;;
41039;SDS011;48586;50.122;18.972;2022-11-15T18:46:25;148.93;;;76.38;;
41039;SDS011;48586;50.122;18.972;2022-11-15T18:49:29;143.02;;;72.97;;
41039;SDS011;48586;50.122;18.972;2022-11-15T18:52:31;151.88;;;73.22;;
41039;SDS011;48586;50.122;18.972;2022-11-15T18:55:33;139.38;;;70.65;;
41039;SDS011;48586;50.122;18.972;2022-11-15T18:58:36;132.70;;;68.18;;
41039;SDS011;48586;50.122;18.972;2022-11-15T19:01:40;146.57;;;69.28;;
41039;SDS011;48586;50.122;18.972;2022-11-15T19:04:47;126.70;;;64.45;;
41039;SDS011;48586;50.122;18.972;2022-11-15T19:07:49;127.97;;;63.17;;
41039;SDS011;48586;50.122;18.972;2022-11-15T19:10:51;135.43;;;64.88;;
41039;SDS011;48586;50.122;18.972;2022-11-15T19:13:53;136.10;;;67.50;;
41039;SDS011;48586;50.122;18.972;2022-11-15T19:16:58;142.13;;;72.60;;
41039;SDS011;48586;50.122;18.972;2022-11-15T19:20:00;146.15;;;78.30;;
41039;SDS011;48586;50.122;18.972;2022-11-15T19:23:02;193.32;;;102.20;;
41039;SDS011;48586;50.122;18.972;2022-11-15T19:26:04;188.65;;;101.50;;
41039;SDS011;48586;50.122;18.972;2022-11-15T19:29:07;194.02;;;104.03;;
41039;SDS011;48586;50.122;18.972;2022-11-15T19:32:12;202.38;;;104.65;;
41039;SDS011;48586;50.122;18.972;2022-11-15T19:35:14;205.65;;;106.30;;
41039;SDS011;48586;50.122;18.972;2022-11-15T19:38:15;213.80;;;109.82;;
41039;SDS011;48586;50.122;18.972;2022-11-15T19:41:18;204.57;;;104.05;;
41039;SDS011;48586;50.122;18.972;2022-11-15T19:44:21;214.10;;;106.82;;
41039;SDS011;48586;50.122;18.972;2022-11-15T19:47:24;196.57;;;102.43;;
41039;SDS011;48586;50.122;18.972;2022-11-15T19:50:27;198.57;;;104.97;;
41039;SDS011;48586;50.122;18.972;2022-11-15T19:53:30;212.10;;;109.63;;
41039;SDS011;48586;50.122;18.972;2022-11-15T19:56:33;231.15;;;115.60;;
41039;SDS011;48586;50.122;18.972;2022-11-15T19:59:35;235.90;;;118.00;;
41039;SDS011;48586;50.122;18.972;2022-11-15T20:02:39;247.68;;;126.68;;
41039;SDS011;48586;50.122;18.972;2022-11-15T20:05:40;228.48;;;117.00;;
41039;SDS011;48586;50.122;18.972;2022-11-15T20:08:43;202.73;;;108.38;;
41039;SDS011;48586;50.122;18.972;2022-11-15T20:11:45;193.93;;;102.65;;
41039;SDS011;48586;50.122;18.972;2022-11-15T20:14:49;192.73;;;102.22;;
41039;SDS011;48586;50.122;18.972;2022-11-15T20:17:52;191.52;;;101.57;;
41039;SDS011;48586;50.122;18.972;2022-11-15T20:20:55;192.63;;;102.70;;
41039;SDS011;48586;50.122;18.972;2022-11-15T20:23:58;205.48;;;105.05;;
41039;SDS011;48586;50.122;18.972;2022-11-15T20:27:00;194.25;;;103.40;;
41039;SDS011;48586;50.122;18.972;2022-11-15T20:30:03;211.15;;;107.60;;
41039;SDS011;48586;50.122;18.972;2022-11-15T20:33:07;202.13;;;106.07;;
41039;SDS011;48586;50.122;18.972;2022-11-15T20:36:09;207.43;;;105.80;;
41039;SDS011;48586;50.122;18.972;2022-11-15T20:39:12;222.10;;;111.15;;
41039;SDS011;48586;50.122;18.972;2022-11-15T20:42:14;214.05;;;107.15;;
41039;SDS011;48586;50.122;18.972;2022-11-15T20:45:16;222.90;;;112.88;;
41039;SDS011;48586;50.122;18.972;2022-11-15T20:48:19;224.50;;;112.13;;
41039;SDS011;48586;50.122;18.972;2022-11-15T20:51:21;216.13;;;106.50;;